EHGG

Eelde Airport

Groningen, The Netherlands
METAR EHGG 181555Z AUTO VRB02KT 2500 BR SCT001 OVC002 02/02 Q1026 BECMG 4000 OVC005
Observed Flight Rules
Dec-18 @ 15:55 UTC (26 minutes ago) Instrument Flight Rules
Wind Visibility Clouds Conditions
Variable at 2 knots 2,494 meters
  • Scattered at 100' AGL
  • Overcast at 200' AGL
  • Mist
Temperatures Readings
Current 2°C / 36°F
Dewpoint 2°C / 36°F
Humidity 100%
Altimeter 30.3" Hg
Pressure 1026 hPa
Elevation 4
METAR EHGG 181555Z AUTO VRB02KT 2500 BR SCT001 OVC002 02/02 Q1026 BECMG 4000 OVC005
Observed Flight Rules
Dec-18 @ 15:55 UTC
(26 minutes ago)
LIFR
Wind Visibility
Variable at 2 knots 2,494 meters
Clouds
  • Scattered at 100' AGL
  • Overcast at 200' AGL
Conditions
  • Mist
Temperature Dewpoint
2°C / 36°F 2°C / 36°F
Humidity Altimeter Pressure
100% 30.3" Hg 1026 hPa